Time;durP1;ratioP1;P1;durP2;ratioP2;P2;SDS_P1;SDS_P2;PMS_P1;PMS_P2;Temp;Humidity;BMP_temperature;BMP_pressure;BME280_temperature;BME280_humidity;BME280_pressure;Samples;Min_cycle;Max_cycle;Signal;HPM_P1;HPM_P2
2023/01/15 00:01:25;;;;;;;;;;;18.90;42.70;;;;;;8365621;28;20283;-45
2023/01/15 00:05:25;;;;;;;;;;;18.90;42.60;;;;;;8365521;28;19917;-44
2023/01/15 00:09:26;;;;;;;;;;;18.90;42.60;;;;;;8365881;28;20366;-44
2023/01/15 00:13:27;;;;;;;;;;;18.90;42.70;;;;;;8365496;28;19916;-44
2023/01/15 00:17:28;;;;;;;;;;;18.90;42.70;;;;;;8364497;28;19919;-44
2023/01/15 00:21:28;;;;;;;;;;;18.90;42.70;;;;;;8365122;28;19925;-44
2023/01/15 00:29:48;;;;;;;;;;;18.90;42.80;;;;;;8364632;28;19923;-44
2023/01/15 00:33:48;;;;;;;;;;;18.80;42.70;;;;;;8364983;28;19913;-44
2023/01/15 00:37:49;;;;;;;;;;;18.80;42.80;;;;;;8364457;28;19916;-44
2023/01/15 00:41:49;;;;;;;;;;;18.80;42.90;;;;;;8362934;28;19932;-45
2023/01/15 00:45:50;;;;;;;;;;;18.80;42.90;;;;;;8364630;28;19917;-45
2023/01/15 00:49:50;;;;;;;;;;;18.80;42.80;;;;;;8363875;28;19966;-43
2023/01/15 00:53:51;;;;;;;;;;;18.80;42.90;;;;;;8364161;28;19913;-46
2023/01/15 00:57:51;;;;;;;;;;;18.70;42.80;;;;;;8364636;28;19925;-44
2023/01/15 01:01:52;;;;;;;;;;;18.70;42.80;;;;;;8363276;28;19929;-43
2023/01/15 01:05:52;;;;;;;;;;;18.70;42.90;;;;;;8363909;28;20019;-43
2023/01/15 01:09:52;;;;;;;;;;;18.70;42.90;;;;;;8363685;28;19912;-43
2023/01/15 01:13:53;;;;;;;;;;;18.70;42.90;;;;;;8363075;28;20285;-44
2023/01/15 01:17:54;;;;;;;;;;;18.70;43.00;;;;;;8363770;28;19919;-44
2023/01/15 01:21:54;;;;;;;;;;;18.70;43.00;;;;;;8363219;28;19925;-45
2023/01/15 01:25:56;;;;;;;;;;;18.70;43.00;;;;;;8362783;28;19913;-44
2023/01/15 01:29:56;;;;;;;;;;;18.70;43.00;;;;;;8362256;28;19917;-44
2023/01/15 01:33:57;;;;;;;;;;;18.70;43.50;;;;;;8363090;28;19913;-45
2023/01/15 01:37:58;;;;;;;;;;;18.70;43.00;;;;;;8363110;28;19982;-45
2023/01/15 01:41:58;;;;;;;;;;;18.60;43.00;;;;;;8363329;28;19967;-44
2023/01/15 01:45:59;;;;;;;;;;;18.60;42.90;;;;;;8363046;28;19917;-45
2023/01/15 01:50:03;;;;;;;;;;;18.60;43.00;;;;;;8362550;28;19917;-44
2023/01/15 01:54:03;;;;;;;;;;;18.60;43.10;;;;;;8362764;28;19917;-44
2023/01/15 01:58:05;;;;;;;;;;;18.60;43.10;;;;;;8363086;28;19990;-45
2023/01/15 02:02:06;;;;;;;;;;;18.60;43.10;;;;;;8361501;28;19948;-45
2023/01/15 02:06:07;;;;;;;;;;;18.60;43.10;;;;;;8362918;28;19924;-44
2023/01/15 02:10:12;;;;;;;;;;;18.60;43.10;;;;;;8362874;28;20277;-44
2023/01/15 02:14:20;;;;;;;;;;;18.60;43.10;;;;;;8361995;28;20019;-44
2023/01/15 02:18:33;;;;;;;;;;;18.60;43.10;;;;;;8362612;28;19952;-45
2023/01/15 02:22:48;;;;;;;;;;;18.60;43.10;;;;;;8362405;28;19921;-45
2023/01/15 02:27:07;;;;;;;;;;;18.60;43.10;;;;;;8362018;28;19956;-44
2023/01/15 02:31:10;;;;;;;;;;;18.60;43.10;;;;;;8362606;28;19920;-45
2023/01/15 02:35:14;;;;;;;;;;;18.50;43.00;;;;;;8361882;28;19917;-44
2023/01/15 02:39:15;;;;;;;;;;;18.60;43.10;;;;;;8362108;28;20389;-44
2023/01/15 02:43:16;;;;;;;;;;;18.50;43.10;;;;;;8367463;28;19995;-45
2023/01/15 02:47:19;;;;;;;;;;;18.50;43.00;;;;;;8367652;28;19924;-45
2023/01/15 02:51:24;;;;;;;;;;;18.50;43.00;;;;;;8367925;28;20000;-45
2023/01/15 02:55:27;;;;;;;;;;;18.50;43.10;;;;;;8368177;28;19931;-45
2023/01/15 02:59:31;;;;;;;;;;;18.50;43.10;;;;;;8367253;28;20041;-45
2023/01/15 03:03:46;;;;;;;;;;;18.50;43.10;;;;;;8368072;28;19935;-45
2023/01/15 03:07:49;;;;;;;;;;;18.50;43.10;;;;;;8367628;28;19921;-45
2023/01/15 03:11:56;;;;;;;;;;;18.50;43.10;;;;;;8367077;28;19993;-44
2023/01/15 03:20:26;;;;;;;;;;;18.50;43.00;;;;;;8367874;28;19974;-45
2023/01/15 03:24:33;;;;;;;;;;;18.50;43.10;;;;;;8367079;28;20366;-46
2023/01/15 03:28:35;;;;;;;;;;;18.50;43.10;;;;;;8367024;28;19956;-45
2023/01/15 03:32:36;;;;;;;;;;;18.40;43.00;;;;;;8366378;28;19924;-45
2023/01/15 03:36:36;;;;;;;;;;;18.40;43.00;;;;;;8366689;28;19917;-45
2023/01/15 03:40:38;;;;;;;;;;;18.40;43.00;;;;;;8366455;28;19960;-44
2023/01/15 03:44:39;;;;;;;;;;;18.40;43.00;;;;;;8365733;28;20007;-45
2023/01/15 03:48:50;;;;;;;;;;;18.40;43.00;;;;;;8366697;28;19924;-44
2023/01/15 03:53:08;;;;;;;;;;;18.40;43.00;;;;;;8364648;28;20348;-44
2023/01/15 03:57:14;;;;;;;;;;;18.40;43.00;;;;;;8365799;28;19956;-44
2023/01/15 04:01:16;;;;;;;;;;;18.40;43.00;;;;;;8365805;28;19921;-44
2023/01/15 04:05:17;;;;;;;;;;;18.40;43.00;;;;;;8365542;28;19929;-45
2023/01/15 04:09:17;;;;;;;;;;;18.40;43.10;;;;;;8365747;28;19989;-45
2023/01/15 04:13:18;;;;;;;;;;;18.40;43.10;;;;;;8365494;28;19917;-44
2023/01/15 04:17:18;;;;;;;;;;;18.40;43.10;;;;;;8365033;28;19916;-44
2023/01/15 04:21:19;;;;;;;;;;;18.40;43.10;;;;;;8365074;28;19924;-44
2023/01/15 04:25:19;;;;;;;;;;;18.30;43.00;;;;;;8365167;28;19913;-44
2023/01/15 04:29:20;;;;;;;;;;;18.40;43.10;;;;;;8364757;28;19939;-45
2023/01/15 04:33:20;;;;;;;;;;;18.40;43.10;;;;;;8365139;28;20365;-44
2023/01/15 04:37:21;;;;;;;;;;;18.40;43.00;;;;;;8364626;28;19956;-44
2023/01/15 04:45:42;;;;;;;;;;;18.40;43.00;;;;;;8364871;28;20392;-44
2023/01/15 04:49:42;;;;;;;;;;;18.40;43.10;;;;;;8364495;28;19959;-45
2023/01/15 04:53:43;;;;;;;;;;;18.40;43.10;;;;;;8363738;28;19939;-44
2023/01/15 04:57:43;;;;;;;;;;;18.40;43.10;;;;;;8363918;28;20031;-45
2023/01/15 05:01:44;;;;;;;;;;;18.40;43.10;;;;;;8363924;28;19921;-44
2023/01/15 05:05:44;;;;;;;;;;;18.40;43.10;;;;;;8363333;28;19948;-45
2023/01/15 05:09:46;;;;;;;;;;;18.40;43.10;;;;;;8362960;28;19948;-44
2023/01/15 05:13:46;;;;;;;;;;;18.40;43.20;;;;;;8363730;28;19925;-45
2023/01/15 05:17:47;;;;;;;;;;;18.50;43.20;;;;;;8363454;28;19920;-44
2023/01/15 05:21:47;;;;;;;;;;;18.50;43.10;;;;;;8363417;28;20279;-44
2023/01/15 05:25:47;;;;;;;;;;;18.60;43.10;;;;;;8363244;28;19940;-45
2023/01/15 05:29:48;;;;;;;;;;;18.70;43.10;;;;;;8363217;28;20070;-44
2023/01/15 05:33:49;;;;;;;;;;;18.70;43.10;;;;;;8363043;28;20313;-45
2023/01/15 05:37:49;;;;;;;;;;;18.80;43.00;;;;;;8362805;28;19966;-43
2023/01/15 05:41:50;;;;;;;;;;;18.90;43.00;;;;;;8363042;28;20385;-44
2023/01/15 05:45:50;;;;;;;;;;;18.90;43.00;;;;;;8363044;28;19927;-45
2023/01/15 05:49:51;;;;;;;;;;;18.90;42.90;;;;;;8362576;28;19924;-43
2023/01/15 05:53:51;;;;;;;;;;;19.00;43.00;;;;;;8362884;28;20462;-45
2023/01/15 05:57:52;;;;;;;;;;;19.00;43.00;;;;;;8363031;28;19925;-45
2023/01/15 06:01:53;;;;;;;;;;;19.10;42.90;;;;;;8362266;28;19925;-44
2023/01/15 06:05:54;;;;;;;;;;;19.10;43.00;;;;;;8362916;28;19920;-45
2023/01/15 06:09:54;;;;;;;;;;;19.10;42.80;;;;;;8362952;28;20300;-44
2023/01/15 06:13:55;;;;;;;;;;;19.20;42.90;;;;;;8362054;28;19919;-44
2023/01/15 06:17:55;;;;;;;;;;;19.20;43.50;;;;;;8367294;28;19917;-44
2023/01/15 06:21:56;;;;;;;;;;;19.30;43.00;;;;;;8368834;28;20017;-44
2023/01/15 06:26:00;;;;;;;;;;;19.30;42.90;;;;;;8368440;28;19916;-45
2023/01/15 06:30:00;;;;;;;;;;;19.30;43.00;;;;;;8369132;28;19996;-44
2023/01/15 06:34:01;;;;;;;;;;;19.30;42.90;;;;;;8368607;28;20062;-44
2023/01/15 06:38:01;;;;;;;;;;;19.30;42.90;;;;;;8368087;28;20354;-45
2023/01/15 06:50:40;;;;;;;;;;;19.40;43.00;;;;;;8367899;28;20055;-44
2023/01/15 06:54:40;;;;;;;;;;;19.40;43.00;;;;;;8368011;28;20267;-47
2023/01/15 06:58:42;;;;;;;;;;;19.50;43.40;;;;;;8367759;28;19917;-45
2023/01/15 07:02:42;;;;;;;;;;;19.50;43.10;;;;;;8367332;28;20340;-45
2023/01/15 07:06:42;;;;;;;;;;;19.60;43.00;;;;;;8367772;28;19920;-44
2023/01/15 07:10:43;;;;;;;;;;;19.50;42.80;;;;;;8367907;28;19921;-45
2023/01/15 07:14:43;;;;;;;;;;;19.60;43.00;;;;;;8366922;28;20011;-45
2023/01/15 07:18:44;;;;;;;;;;;19.60;42.90;;;;;;8367192;28;20287;-45
2023/01/15 07:22:47;;;;;;;;;;;19.60;42.90;;;;;;8367238;28;19957;-45
2023/01/15 07:26:47;;;;;;;;;;;19.60;42.80;;;;;;8366536;28;20062;-45
2023/01/15 07:30:48;;;;;;;;;;;19.70;42.90;;;;;;8367065;28;20267;-44
2023/01/15 07:34:48;;;;;;;;;;;19.70;42.80;;;;;;8366786;28;19917;-45
2023/01/15 07:38:49;;;;;;;;;;;19.70;42.80;;;;;;8366256;28;20429;-45
2023/01/15 07:51:38;;;;;;;;;;;19.70;42.70;;;;;;8372185;28;19963;-44
2023/01/15 07:55:38;;;;;;;;;;;19.80;42.80;;;;;;8366576;28;19921;-44
2023/01/15 07:59:39;;;;;;;;;;;19.80;42.70;;;;;;8365433;28;19925;-45
2023/01/15 08:03:39;;;;;;;;;;;19.80;42.80;;;;;;8365853;28;19986;-45
2023/01/15 08:07:41;;;;;;;;;;;19.90;42.70;;;;;;8357836;28;19917;-44
2023/01/15 08:16:00;;;;;;;;;;;19.80;43.30;;;;;;8368164;28;19920;-44
2023/01/15 08:20:02;;;;;;;;;;;19.90;42.80;;;;;;8364808;28;19925;-44
2023/01/15 08:24:02;;;;;;;;;;;19.90;42.80;;;;;;8365103;28;19917;-44
2023/01/15 08:28:03;;;;;;;;;;;19.90;42.70;;;;;;8365012;28;20398;-45
2023/01/15 08:32:03;;;;;;;;;;;19.90;42.70;;;;;;8364484;28;20297;-46
2023/01/15 08:36:04;;;;;;;;;;;19.90;42.60;;;;;;8365300;28;20357;-46
2023/01/15 08:40:05;;;;;;;;;;;19.90;42.60;;;;;;8364249;28;19924;-45
2023/01/15 08:44:05;;;;;;;;;;;19.90;42.60;;;;;;8364037;28;20380;-45
2023/01/15 08:48:06;;;;;;;;;;;20.00;42.60;;;;;;8364337;28;19994;-45
2023/01/15 08:52:06;;;;;;;;;;;20.00;42.50;;;;;;8364258;28;19939;-45
2023/01/15 08:56:10;;;;;;;;;;;20.00;42.60;;;;;;8363492;28;20314;-44
2023/01/15 09:00:11;;;;;;;;;;;20.00;42.60;;;;;;8364041;28;20024;-44
2023/01/15 09:04:13;;;;;;;;;;;20.00;42.60;;;;;;8363652;28;19920;-45
2023/01/15 09:08:13;;;;;;;;;;;20.00;42.60;;;;;;8363317;28;19917;-44
2023/01/15 09:12:14;;;;;;;;;;;20.00;42.60;;;;;;8363528;28;19917;-45
2023/01/15 09:16:16;;;;;;;;;;;20.00;42.50;;;;;;8363702;28;19913;-45
2023/01/15 09:20:16;;;;;;;;;;;20.10;42.50;;;;;;8362996;28;19932;-45
2023/01/15 09:24:17;;;;;;;;;;;20.10;42.50;;;;;;8363556;28;20287;-45
2023/01/15 09:28:17;;;;;;;;;;;20.10;42.40;;;;;;8363172;28;20274;-45
2023/01/15 09:32:17;;;;;;;;;;;20.10;42.50;;;;;;8362643;28;20023;-45
2023/01/15 09:36:21;;;;;;;;;;;20.10;42.40;;;;;;8363452;28;19924;-44
2023/01/15 09:40:40;;;;;;;;;;;20.10;42.30;;;;;;8363236;28;19925;-45
2023/01/15 09:44:44;;;;;;;;;;;20.20;42.30;;;;;;8362436;28;20370;-45
2023/01/15 09:49:03;;;;;;;;;;;20.10;42.30;;;;;;8363149;28;20388;-45
2023/01/15 09:53:04;;;;;;;;;;;20.10;42.20;;;;;;8367616;28;19927;-44
2023/01/15 09:57:08;;;;;;;;;;;20.20;42.30;;;;;;8369554;28;19921;-44
2023/01/15 10:01:13;;;;;;;;;;;20.20;42.30;;;;;;8369884;28;20011;-44
2023/01/15 10:05:16;;;;;;;;;;;20.20;42.20;;;;;;8369010;28;19967;-44
2023/01/15 10:09:20;;;;;;;;;;;20.20;42.10;;;;;;8369037;28;19917;-44
2023/01/15 10:13:20;;;;;;;;;;;20.20;42.20;;;;;;8369157;28;20366;-45
2023/01/15 10:17:30;;;;;;;;;;;20.20;42.20;;;;;;8368466;28;19994;-46
2023/01/15 10:21:38;;;;;;;;;;;20.20;42.10;;;;;;8369369;28;19932;-45
2023/01/15 10:25:50;;;;;;;;;;;20.20;42.10;;;;;;8368986;28;19924;-45
2023/01/15 10:30:09;;;;;;;;;;;20.30;42.10;;;;;;8368348;28;19917;-46
2023/01/15 10:34:28;;;;;;;;;;;20.30;42.10;;;;;;8368983;28;20012;-45
2023/01/15 10:38:36;;;;;;;;;;;20.20;42.10;;;;;;8368189;28;19970;-45
2023/01/15 10:42:57;;;;;;;;;;;20.30;42.10;;;;;;8368149;28;20263;-45
2023/01/15 10:46:59;;;;;;;;;;;20.30;42.20;;;;;;8368121;28;20001;-46
2023/01/15 10:51:02;;;;;;;;;;;20.30;42.10;;;;;;8368251;28;19917;-47
2023/01/15 10:55:12;;;;;;;;;;;20.30;42.10;;;;;;8368463;28;20015;-47
2023/01/15 10:59:51;;;;;;;;;;;20.30;42.00;;;;;;8367592;28;19928;-45
2023/01/15 11:03:52;;;;;;;;;;;20.30;42.00;;;;;;8265686;28;19918;-45
2023/01/15 11:07:53;;;;;;;;;;;20.30;42.10;;;;;;8312914;28;19928;-45
2023/01/15 11:20:35;;;;;;;;;;;20.30;42.00;;;;;;8366940;28;19932;-46
2023/01/15 11:24:56;;;;;;;;;;;20.30;42.00;;;;;;8367260;28;19924;-44
2023/01/15 11:28:58;;;;;;;;;;;20.30;42.00;;;;;;8364440;28;19917;-45
2023/01/15 11:33:02;;;;;;;;;;;20.30;41.90;;;;;;8366933;28;19974;-45
2023/01/15 11:37:03;;;;;;;;;;;20.30;41.90;;;;;;8367281;28;20394;-46
2023/01/15 11:41:04;;;;;;;;;;;20.40;41.80;;;;;;8366392;28;19932;-45
2023/01/15 11:54:04;;;;;;;;;;;20.40;41.80;;;;;;8321780;28;20025;-46
2023/01/15 11:58:07;;;;;;;;;;;20.40;41.80;;;;;;8366026;28;20035;-46
2023/01/15 12:06:43;;;;;;;;;;;20.40;41.80;;;;;;8264716;28;19991;-45
2023/01/15 12:11:10;;;;;;;;;;;20.40;41.70;;;;;;8357296;28;19970;-46
2023/01/15 12:15:10;;;;;;;;;;;20.40;41.70;;;;;;8353458;28;19917;-45
2023/01/15 12:19:17;;;;;;;;;;;20.40;41.70;;;;;;8365334;28;19925;-45
2023/01/15 12:23:20;;;;;;;;;;;20.40;41.60;;;;;;8364836;28;20113;-46
2023/01/15 12:27:39;;;;;;;;;;;20.40;41.60;;;;;;8365332;28;19920;-47
2023/01/15 12:31:46;;;;;;;;;;;20.40;41.50;;;;;;8365172;28;19940;-46
2023/01/15 12:35:55;;;;;;;;;;;20.40;41.60;;;;;;8364464;28;19917;-46
2023/01/15 12:40:07;;;;;;;;;;;20.40;41.60;;;;;;8363379;28;20773;-46
2023/01/15 12:48:33;;;;;;;;;;;20.40;41.60;;;;;;8364830;28;19924;-46
2023/01/15 12:52:36;;;;;;;;;;;20.40;41.60;;;;;;8364537;28;20008;-46
2023/01/15 12:56:54;;;;;;;;;;;20.40;41.50;;;;;;8364070;28;19932;-45
2023/01/15 13:01:00;;;;;;;;;;;20.40;41.50;;;;;;8364074;28;19925;-46
2023/01/15 13:05:00;;;;;;;;;;;20.40;41.50;;;;;;8350991;28;19917;-47
2023/01/15 13:09:07;;;;;;;;;;;20.40;41.40;;;;;;8360941;28;21294;-46
2023/01/15 13:13:16;;;;;;;;;;;20.50;41.50;;;;;;8361961;28;19916;-46
2023/01/15 13:17:34;;;;;;;;;;;20.50;41.60;;;;;;8362952;28;20003;-46
2023/01/15 13:21:35;;;;;;;;;;;20.50;41.60;;;;;;8361162;28;20408;-46
2023/01/15 13:25:46;;;;;;;;;;;20.50;41.70;;;;;;8361901;28;19924;-48
2023/01/15 13:29:56;;;;;;;;;;;20.60;41.60;;;;;;8357735;28;20281;-49
2023/01/15 13:34:00;;;;;;;;;;;20.60;41.70;;;;;;8351370;28;19916;-46
2023/01/15 13:38:02;;;;;;;;;;;20.60;41.70;;;;;;8329226;28;19913;-45
2023/01/15 13:46:22;;;;;;;;;;;20.60;41.70;;;;;;8356239;28;20408;-46
2023/01/15 13:50:33;;;;;;;;;;;20.70;41.70;;;;;;8349811;28;19917;-45
2023/01/15 13:54:38;;;;;;;;;;;20.70;41.70;;;;;;8346369;28;20261;-45
2023/01/15 13:58:50;;;;;;;;;;;20.80;41.70;;;;;;8352982;28;19917;-46
2023/01/15 14:02:52;;;;;;;;;;;20.70;41.60;;;;;;8342284;28;19931;-44
2023/01/15 14:06:53;;;;;;;;;;;20.70;41.60;;;;;;8353046;28;19917;-44
2023/01/15 14:10:54;;;;;;;;;;;20.80;41.60;;;;;;8350091;28;19943;-45
2023/01/15 14:15:06;;;;;;;;;;;20.70;41.50;;;;;;8345240;28;20389;-45
2023/01/15 14:19:19;;;;;;;;;;;20.80;41.50;;;;;;8352171;28;19970;-45
2023/01/15 14:23:26;;;;;;;;;;;20.80;41.60;;;;;;8362097;28;20366;-46
2023/01/15 14:27:32;;;;;;;;;;;20.80;41.50;;;;;;8362056;28;19917;-45
2023/01/15 14:31:40;;;;;;;;;;;20.80;41.60;;;;;;8362099;28;19917;-45
2023/01/15 14:35:43;;;;;;;;;;;20.90;41.60;;;;;;8361005;28;19940;-46
2023/01/15 14:39:49;;;;;;;;;;;20.90;41.80;;;;;;8367791;28;19928;-46
2023/01/15 14:43:49;;;;;;;;;;;20.80;41.70;;;;;;8366246;28;20457;-47
2023/01/15 14:47:53;;;;;;;;;;;20.80;41.80;;;;;;8367323;28;19917;-45
2023/01/15 14:51:54;;;;;;;;;;;20.90;41.80;;;;;;8360373;28;19966;-43
2023/01/15 14:55:57;;;;;;;;;;;20.90;41.90;;;;;;8353034;28;19924;-45
2023/01/15 14:59:59;;;;;;;;;;;20.90;41.60;;;;;;8361673;28;20016;-46
2023/01/15 15:04:05;;;;;;;;;;;20.90;41.60;;;;;;8335038;28;19920;-46
2023/01/15 15:08:10;;;;;;;;;;;21.00;41.60;;;;;;8367085;28;19919;-45
2023/01/15 15:12:19;;;;;;;;;;;21.10;41.40;;;;;;8367698;28;19963;-46
2023/01/15 15:16:24;;;;;;;;;;;21.10;41.40;;;;;;8365937;28;19971;-44
2023/01/15 15:20:46;;;;;;;;;;;21.20;41.40;;;;;;8366653;28;19929;-44
2023/01/15 15:24:49;;;;;;;;;;;21.20;41.30;;;;;;8366958;28;19920;-45
2023/01/15 15:29:01;;;;;;;;;;;21.20;41.30;;;;;;8366287;28;20286;-45
2023/01/15 15:33:03;;;;;;;;;;;21.20;41.20;;;;;;8360215;28;19917;-44
2023/01/15 15:37:04;;;;;;;;;;;21.20;41.30;;;;;;8354148;28;19960;-45
2023/01/15 15:41:07;;;;;;;;;;;21.20;41.20;;;;;;8341083;28;20404;-46
2023/01/15 15:49:54;;;;;;;;;;;21.20;41.20;;;;;;8361801;28;20337;-44
2023/01/15 15:54:02;;;;;;;;;;;21.20;41.10;;;;;;8366203;28;19920;-44
2023/01/15 15:58:03;;;;;;;;;;;21.20;41.20;;;;;;8359271;28;19932;-44
2023/01/15 16:02:12;;;;;;;;;;;21.10;41.20;;;;;;8357658;28;19928;-44
2023/01/15 16:06:18;;;;;;;;;;;21.10;41.20;;;;;;8360425;28;19959;-44
2023/01/15 16:10:28;;;;;;;;;;;21.10;41.40;;;;;;8359168;28;20000;-45
2023/01/15 16:14:30;;;;;;;;;;;21.10;41.50;;;;;;8332344;28;19990;-45
2023/01/15 16:18:33;;;;;;;;;;;21.10;41.40;;;;;;8363587;28;19917;-45
2023/01/15 16:22:34;;;;;;;;;;;21.10;41.40;;;;;;8341519;28;19936;-44
2023/01/15 16:26:36;;;;;;;;;;;21.10;41.40;;;;;;8356034;28;19916;-46
2023/01/15 16:30:37;;;;;;;;;;;21.10;41.20;;;;;;8364783;28;19920;-44
2023/01/15 16:34:37;;;;;;;;;;;21.10;41.30;;;;;;8358212;28;20007;-44
2023/01/15 16:38:39;;;;;;;;;;;21.10;41.20;;;;;;8363195;28;19917;-44
2023/01/15 16:42:42;;;;;;;;;;;21.20;41.20;;;;;;8362394;28;19931;-44
2023/01/15 16:46:53;;;;;;;;;;;21.20;41.10;;;;;;8358691;28;19921;-44
2023/01/15 16:50:54;;;;;;;;;;;21.20;41.10;;;;;;8363832;28;19921;-45
2023/01/15 16:54:56;;;;;;;;;;;21.20;41.00;;;;;;8364176;28;20016;-44
2023/01/15 16:58:57;;;;;;;;;;;21.30;40.90;;;;;;8363452;28;19917;-44
2023/01/15 17:02:57;;;;;;;;;;;21.30;40.80;;;;;;8362554;28;19921;-43
2023/01/15 17:06:59;;;;;;;;;;;21.30;40.80;;;;;;8363511;28;19927;-47
2023/01/15 17:11:01;;;;;;;;;;;21.30;40.80;;;;;;8362787;28;19980;-43
2023/01/15 17:15:13;;;;;;;;;;;21.30;40.90;;;;;;8362236;28;19923;-44
2023/01/15 17:19:15;;;;;;;;;;;21.30;40.90;;;;;;8355917;28;19952;-43
2023/01/15 17:23:16;;;;;;;;;;;21.30;40.90;;;;;;8360378;28;19932;-43
2023/01/15 17:27:17;;;;;;;;;;;21.30;40.90;;;;;;8363248;28;19916;-44
2023/01/15 17:31:25;;;;;;;;;;;21.30;40.90;;;;;;8363145;28;19913;-44
2023/01/15 17:35:27;;;;;;;;;;;21.20;41.00;;;;;;8362540;28;19921;-46
2023/01/15 17:39:27;;;;;;;;;;;21.30;41.10;;;;;;8363169;28;19917;-46
2023/01/15 17:43:28;;;;;;;;;;;21.20;41.00;;;;;;8351221;28;19924;-44
2023/01/15 17:47:28;;;;;;;;;;;21.20;41.00;;;;;;8362368;28;19967;-43
2023/01/15 17:51:29;;;;;;;;;;;21.20;41.00;;;;;;8362594;28;19917;-43
2023/01/15 18:08:35;;;;;;;;;;;21.20;40.90;;;;;;8343165;28;19940;-45
2023/01/15 18:12:35;;;;;;;;;;;21.20;40.90;;;;;;8351969;28;19917;-44
2023/01/15 18:16:37;;;;;;;;;;;21.00;35.60;;;;;;8368451;28;19917;-47
2023/01/15 18:20:38;;;;;;;;;;;20.50;37.60;;;;;;8368435;28;20011;-45
2023/01/15 18:24:39;;;;;;;;;;;20.50;39.10;;;;;;8369084;28;19920;-45
2023/01/15 18:28:39;;;;;;;;;;;20.60;38.60;;;;;;8368689;28;19967;-45
2023/01/15 18:32:40;;;;;;;;;;;20.80;38.30;;;;;;8366830;28;20301;-45
2023/01/15 18:36:40;;;;;;;;;;;20.90;38.10;;;;;;8368357;28;19956;-43
2023/01/15 18:40:41;;;;;;;;;;;21.10;38.20;;;;;;8368418;28;19927;-44
2023/01/15 18:49:01;;;;;;;;;;;21.20;38.30;;;;;;8366685;28;20404;-43
2023/01/15 18:53:01;;;;;;;;;;;21.30;38.40;;;;;;8365336;28;19916;-44
2023/01/15 18:57:01;;;;;;;;;;;21.30;38.40;;;;;;8358314;28;19928;-44
2023/01/15 19:01:06;;;;;;;;;;;21.30;39.20;;;;;;8367644;28;20007;-45
2023/01/15 19:05:06;;;;;;;;;;;21.30;38.60;;;;;;8367261;28;19916;-44
2023/01/15 19:09:09;;;;;;;;;;;21.20;39.20;;;;;;8367460;28;20281;-43
2023/01/15 19:13:12;;;;;;;;;;;21.20;38.80;;;;;;8367475;28;19924;-43
2023/01/15 19:21:32;;;;;;;;;;;21.20;39.00;;;;;;8367138;28;20105;-44
2023/01/15 19:25:43;;;;;;;;;;;21.20;39.10;;;;;;8366887;28;19960;-45
2023/01/15 19:29:43;;;;;;;;;;;21.20;39.10;;;;;;8356164;28;19925;-45
2023/01/15 19:33:44;;;;;;;;;;;21.20;39.20;;;;;;8364354;28;20007;-45
2023/01/15 19:37:45;;;;;;;;;;;21.20;39.30;;;;;;8366691;28;19966;-44
2023/01/15 19:50:34;;;;;;;;;;;21.10;39.50;;;;;;8348785;28;19928;-44
2023/01/15 19:58:53;;;;;;;;;;;21.10;39.60;;;;;;8367832;28;20388;-42
2023/01/15 20:02:55;;;;;;;;;;;21.10;39.60;;;;;;8365451;28;19952;-44
2023/01/15 20:06:55;;;;;;;;;;;21.10;39.50;;;;;;8364571;28;20377;-44
2023/01/15 20:10:55;;;;;;;;;;;21.20;39.40;;;;;;8364490;28;19917;-44
2023/01/15 20:14:56;;;;;;;;;;;21.20;39.30;;;;;;8365182;28;19916;-43
2023/01/15 20:18:56;;;;;;;;;;;21.30;39.30;;;;;;8365109;28;20378;-43
2023/01/15 20:22:57;;;;;;;;;;;21.30;39.40;;;;;;8364590;28;20011;-44
2023/01/15 20:26:57;;;;;;;;;;;21.30;39.30;;;;;;8364698;28;20289;-44
2023/01/15 20:30:58;;;;;;;;;;;21.30;39.40;;;;;;8364688;28;19952;-44
2023/01/15 20:34:59;;;;;;;;;;;21.30;39.50;;;;;;8363458;28;19920;-44
2023/01/15 20:39:00;;;;;;;;;;;21.20;39.60;;;;;;8364948;28;20330;-43
2023/01/15 20:51:40;;;;;;;;;;;21.10;39.70;;;;;;8364402;28;20285;-43
2023/01/15 20:55:40;;;;;;;;;;;21.00;39.60;;;;;;8364970;28;19921;-44
2023/01/15 20:59:40;;;;;;;;;;;21.00;39.60;;;;;;8363666;28;20023;-43
2023/01/15 21:03:41;;;;;;;;;;;20.90;39.60;;;;;;8364328;28;20384;-45
2023/01/15 21:07:41;;;;;;;;;;;20.90;39.70;;;;;;8364206;28;19916;-43
2023/01/15 21:11:42;;;;;;;;;;;20.80;39.70;;;;;;8363454;28;20433;-43
2023/01/15 21:15:42;;;;;;;;;;;20.80;39.70;;;;;;8364064;28;20293;-44
2023/01/15 21:19:43;;;;;;;;;;;20.80;39.80;;;;;;8363662;28;19924;-45
2023/01/15 21:23:46;;;;;;;;;;;20.70;39.80;;;;;;8363195;28;20411;-44
2023/01/15 21:27:47;;;;;;;;;;;20.70;40.00;;;;;;8363819;28;19965;-44
2023/01/15 21:31:47;;;;;;;;;;;20.60;40.00;;;;;;8363530;28;19920;-44
2023/01/15 21:35:47;;;;;;;;;;;20.50;40.10;;;;;;8363183;28;20004;-44
2023/01/15 21:39:48;;;;;;;;;;;20.50;40.10;;;;;;8362933;28;19925;-44
2023/01/15 21:48:07;;;;;;;;;;;20.40;40.20;;;;;;8362739;28;19923;-44
2023/01/15 21:52:09;;;;;;;;;;;20.40;40.20;;;;;;8363044;28;19924;-43
2023/01/15 21:56:10;;;;;;;;;;;20.30;40.20;;;;;;8363019;28;19996;-43
2023/01/15 22:00:10;;;;;;;;;;;20.30;40.30;;;;;;8363117;28;19932;-43
2023/01/15 22:04:11;;;;;;;;;;;20.20;40.30;;;;;;8362879;28;19970;-43
2023/01/15 22:08:12;;;;;;;;;;;20.20;40.30;;;;;;8362477;28;20496;-42
2023/01/15 22:12:12;;;;;;;;;;;20.10;40.30;;;;;;8362843;28;19921;-44
2023/01/15 22:16:12;;;;;;;;;;;20.10;40.40;;;;;;8362865;28;19923;-44
2023/01/15 22:20:13;;;;;;;;;;;20.10;40.40;;;;;;8362497;28;19975;-43
2023/01/15 22:24:13;;;;;;;;;;;20.00;40.30;;;;;;8362633;28;19920;-44
2023/01/15 22:28:14;;;;;;;;;;;20.00;40.40;;;;;;8362283;28;19931;-43
2023/01/15 22:32:15;;;;;;;;;;;20.00;40.40;;;;;;8361890;28;19963;-43
2023/01/15 22:36:15;;;;;;;;;;;20.00;40.50;;;;;;8362769;28;19913;-44
2023/01/15 22:40:16;;;;;;;;;;;19.90;40.40;;;;;;8362368;28;19925;-44
2023/01/15 22:44:16;;;;;;;;;;;19.90;40.40;;;;;;8361767;28;19924;-43
2023/01/15 22:48:17;;;;;;;;;;;19.90;40.70;;;;;;8362190;28;19917;-45
2023/01/15 22:52:17;;;;;;;;;;;19.90;40.50;;;;;;8362207;28;19913;-44
2023/01/15 22:56:18;;;;;;;;;;;19.80;40.50;;;;;;8361796;28;19970;-43
2023/01/15 23:00:18;;;;;;;;;;;19.80;40.50;;;;;;8365737;28;19925;-44
2023/01/15 23:04:20;;;;;;;;;;;19.80;40.50;;;;;;8367768;28;20019;-44
2023/01/15 23:08:20;;;;;;;;;;;19.70;40.50;;;;;;8367252;28;19999;-44
2023/01/15 23:12:21;;;;;;;;;;;19.70;40.50;;;;;;8366441;28;19913;-44
2023/01/15 23:16:22;;;;;;;;;;;19.70;40.50;;;;;;8367485;28;20016;-43
2023/01/15 23:20:22;;;;;;;;;;;19.60;40.50;;;;;;8366891;28;19947;-43
2023/01/15 23:24:22;;;;;;;;;;;19.60;40.50;;;;;;8367078;28;19917;-43
2023/01/15 23:28:23;;;;;;;;;;;19.60;40.50;;;;;;8367338;28;20422;-43
2023/01/15 23:32:23;;;;;;;;;;;19.60;40.50;;;;;;8366587;28;19913;-43
2023/01/15 23:36:24;;;;;;;;;;;19.50;40.50;;;;;;8367319;28;19913;-43
2023/01/15 23:40:24;;;;;;;;;;;19.50;40.50;;;;;;8366679;28;20464;-44
2023/01/15 23:48:44;;;;;;;;;;;19.50;40.60;;;;;;8369976;28;19932;-44
2023/01/15 23:52:44;;;;;;;;;;;19.50;40.50;;;;;;8366912;28;20251;-43
2023/01/15 23:56:45;;;;;;;;;;;19.40;40.50;;;;;;8366211;28;19921;-42
